Time;durP1;ratioP1;P1;durP2;ratioP2;P2;SDS_P1;SDS_P2;PMS_P1;PMS_P2;Temp;Humidity;BMP_temperature;BMP_pressure;BME280_temperature;BME280_humidity;BME280_pressure;Samples;Min_cycle;Max_cycle;Signal;HPM_P1;HPM_P2
2022/08/01 00:00:36;;;;;;;7.50;4.38;;;;;;;22.06;100.00;100539.03;4999410;28;20057;-69
2022/08/01 00:03:02;;;;;;;5.65;3.75;;;;;;;22.04;100.00;100539.47;4993739;28;20037;-69
2022/08/01 00:05:27;;;;;;;10.10;4.88;;;;;;;22.02;100.00;100539.13;4993545;28;20041;-68
2022/08/01 00:07:53;;;;;;;7.35;4.22;;;;;;;22.03;100.00;100548.88;4993514;28;20470;-68
2022/08/01 00:10:18;;;;;;;8.30;4.03;;;;;;;21.97;100.00;100538.91;4992981;28;20065;-69
2022/08/01 00:12:44;;;;;;;5.53;3.78;;;;;;;22.02;100.00;100543.84;5000506;28;20414;-68
2022/08/01 00:15:12;;;;;;;6.50;4.05;;;;;;;21.96;100.00;100542.84;4993155;28;20034;-69
2022/08/01 00:17:38;;;;;;;6.82;4.15;;;;;;;22.00;100.00;100547.03;5018606;28;20037;-69
2022/08/01 00:20:10;;;;;;;7.22;3.97;;;;;;;22.05;100.00;100543.75;5027471;28;20121;-68
2022/08/01 00:22:35;;;;;;;4.45;3.47;;;;;;;22.08;100.00;100547.59;4994390;28;20070;-68
2022/08/01 00:25:03;;;;;;;5.53;3.50;;;;;;;22.07;100.00;100546.81;4995378;28;20072;-69
2022/08/01 00:27:28;;;;;;;8.38;3.35;;;;;;;22.07;100.00;100543.28;5002881;28;20030;-68
2022/08/01 00:29:54;;;;;;;5.43;3.47;;;;;;;22.08;100.00;100539.38;5011975;28;20060;-69
2022/08/01 00:32:19;;;;;;;4.88;3.17;;;;;;;22.09;100.00;100543.63;5009474;28;20037;-68
2022/08/01 00:34:45;;;;;;;4.07;2.83;;;;;;;22.10;100.00;100536.94;5005739;28;20056;-68
2022/08/01 00:37:11;;;;;;;7.32;3.47;;;;;;;22.09;100.00;100536.19;5000554;28;20489;-68
2022/08/01 00:39:36;;;;;;;6.03;3.55;;;;;;;22.05;100.00;100537.47;4997396;28;20038;-69
2022/08/01 00:42:10;;;;;;;4.95;3.05;;;;;;;22.03;100.00;100534.41;4996968;28;20423;-69
2022/08/01 00:44:36;;;;;;;7.43;3.47;;;;;;;22.04;100.00;100542.22;4998802;28;20394;-68
2022/08/01 00:47:03;;;;;;;7.75;3.33;;;;;;;21.95;100.00;100539.31;4998596;28;20042;-69
2022/08/01 00:49:28;;;;;;;4.65;2.83;;;;;;;21.98;100.00;100534.94;5006636;28;20037;-68
2022/08/01 00:51:55;;;;;;;5.05;2.85;;;;;;;22.02;100.00;100538.34;5009001;28;20407;-69
2022/08/01 00:54:21;;;;;;;6.10;3.25;;;;;;;22.03;100.00;100537.13;4999266;28;20049;-69
2022/08/01 00:56:47;;;;;;;4.25;3.13;;;;;;;22.05;100.00;100537.47;4997196;28;20030;-68
2022/08/01 00:59:14;;;;;;;4.80;3.05;;;;;;;22.03;100.00;100537.13;4996643;28;20116;-69
2022/08/01 01:01:40;;;;;;;6.47;3.97;;;;;;;22.04;100.00;100542.22;5004730;28;20045;-69
2022/08/01 01:04:05;;;;;;;6.13;3.40;;;;;;;22.03;100.00;100535.16;4998052;28;20038;-68
2022/08/01 01:06:43;;;;;;;5.43;3.47;;;;;;;22.02;100.00;100536.38;4995864;28;20119;-68
2022/08/01 01:09:17;;;;;;;4.95;3.17;;;;;;;22.06;100.00;100542.53;5002901;28;20026;-68
2022/08/01 01:11:45;;;;;;;9.50;3.05;;;;;;;22.02;100.00;100532.88;5002842;28;20397;-69
2022/08/01 01:14:35;;;;;;;6.20;3.20;;;;;;;21.99;100.00;100531.00;4998329;28;20038;-68
2022/08/01 01:17:03;;;;;;;7.72;3.50;;;;;;;21.97;100.00;100533.41;5002623;28;20058;-69
2022/08/01 01:19:33;;;;;;;5.72;2.88;;;;;;;22.02;100.00;100538.34;4996084;28;20483;-68
2022/08/01 01:22:24;;;;;;;6.35;3.25;;;;;;;22.02;100.00;100536.38;4998672;28;20554;-69
2022/08/01 01:25:01;;;;;;;6.72;3.58;;;;;;;21.85;100.00;100534.91;5017287;28;20485;-68
2022/08/01 01:27:41;;;;;;;5.97;3.05;;;;;;;21.85;100.00;100539.63;4998043;28;20042;-69
2022/08/01 01:30:07;;;;;;;4.53;2.80;;;;;;;21.90;100.00;100534.38;5009708;28;20030;-68
2022/08/01 01:32:39;;;;;;;5.18;2.85;;;;;;;21.94;100.00;100537.00;5008677;28;20030;-69
2022/08/01 01:35:09;;;;;;;5.78;3.17;;;;;;;21.95;100.00;100533.09;5016347;28;20037;-69
2022/08/01 01:37:39;;;;;;;5.47;2.45;;;;;;;21.97;100.00;100541.66;5007703;28;20034;-69
2022/08/01 01:40:06;;;;;;;3.83;2.20;;;;;;;21.92;100.00;100544.91;5008968;28;20040;-69
2022/08/01 01:42:33;;;;;;;4.50;2.08;;;;;;;21.87;100.00;100538.00;5003395;28;20027;-69
2022/08/01 01:45:01;;;;;;;3.78;2.00;;;;;;;21.88;100.00;100544.22;5001370;28;20120;-69
2022/08/01 01:47:27;;;;;;;3.47;1.83;;;;;;;21.86;100.00;100543.91;5003788;28;20073;-69
2022/08/01 01:49:55;;;;;;;4.68;2.35;;;;;;;21.77;100.00;100543.72;5007918;28;20030;-69
2022/08/01 01:52:24;;;;;;;6.38;1.77;;;;;;;21.78;100.00;100543.28;5003711;28;20129;-69
2022/08/01 01:54:51;;;;;;;2.15;1.77;;;;;;;21.84;100.00;100547.06;5002600;28;20390;-69
2022/08/01 01:57:19;;;;;;;2.58;1.85;;;;;;;21.89;100.00;100554.00;5004324;28;20075;-69
2022/08/01 01:59:47;;;;;;;2.83;1.80;;;;;;;21.92;100.00;100558.63;5002406;28;20034;-69
2022/08/01 02:02:15;;;;;;;4.57;1.80;;;;;;;21.92;100.00;100544.91;4998833;28;20027;-69
2022/08/01 02:04:43;;;;;;;2.95;2.03;;;;;;;21.86;100.00;100552.13;5007963;28;20660;-69
2022/08/01 02:07:12;;;;;;;8.07;1.92;;;;;;;21.84;100.00;100560.00;5002473;28;20038;-69
2022/08/01 02:09:41;;;;;;;4.30;2.05;;;;;;;21.83;100.00;100550.25;5008982;28;20455;-69
2022/08/01 02:12:11;;;;;;;3.55;1.90;;;;;;;21.77;100.00;100558.22;5006687;28;20261;-69
2022/08/01 02:14:39;;;;;;;3.08;1.88;;;;;;;21.75;100.00;100554.38;5023118;28;20029;-69
2022/08/01 02:17:05;;;;;;;4.05;2.00;;;;;;;21.79;100.00;100544.06;5008008;28;20034;-69
2022/08/01 02:19:34;;;;;;;4.00;2.17;;;;;;;21.79;100.00;100553.06;5006646;28;20030;-69
2022/08/01 02:22:01;;;;;;;3.88;2.60;;;;;;;21.78;100.00;100548.78;5006146;28;20025;-69
2022/08/01 02:24:26;;;;;;;3.15;1.90;;;;;;;21.85;100.00;100545.13;5000500;28;20031;-69
2022/08/01 02:26:54;;;;;;;2.95;2.10;;;;;;;21.85;100.00;100542.38;5004416;28;20033;-69
2022/08/01 02:31:54;;;;;;;3.65;2.25;;;;;;;21.88;100.00;100555.19;5007031;28;20058;-66
2022/08/01 02:34:22;;;;;;;4.53;2.22;;;;;;;21.87;100.00;100553.69;5020509;28;20033;-66
2022/08/01 02:36:50;;;;;;;5.57;3.25;;;;;;;21.92;100.00;100558.63;5011771;28;20034;-66
2022/08/01 02:39:20;;;;;;;4.63;2.25;;;;;;;21.87;100.00;100545.44;5009882;28;20052;-67
2022/08/01 02:41:49;;;;;;;4.70;1.95;;;;;;;21.88;100.00;100555.19;4991359;28;20030;-66
2022/08/01 02:44:24;;;;;;;3.65;2.28;;;;;;;21.84;100.00;100554.53;4987513;28;20037;-65
2022/08/01 02:46:57;;;;;;;4.97;2.53;;;;;;;21.79;100.00;100555.03;4990356;28;20073;-66
2022/08/01 02:49:25;;;;;;;5.07;2.35;;;;;;;21.72;100.00;100552.50;4988764;28;20034;-67
2022/08/01 02:51:55;;;;;;;3.53;2.05;;;;;;;21.73;100.00;100556.78;4989544;28;20038;-66
2022/08/01 02:54:23;;;;;;;6.43;2.75;;;;;;;21.72;100.00;100568.97;4990400;28;20030;-66
2022/08/01 02:56:51;;;;;;;2.88;1.92;;;;;;;21.68;100.00;100558.06;4992110;28;20022;-66
2022/08/01 02:59:20;;;;;;;8.35;2.10;;;;;;;21.69;100.00;100567.84;4991462;28;20042;-66
2022/08/01 03:01:47;;;;;;;5.07;2.33;;;;;;;21.72;100.00;100564.22;4990833;28;20491;-66
2022/08/01 03:04:15;;;;;;;5.13;2.78;;;;;;;21.69;100.00;100564.31;4985363;28;20108;-66
2022/08/01 03:06:41;;;;;;;4.57;2.35;;;;;;;21.68;100.00;100562.78;4989475;28;20057;-66
2022/08/01 03:09:09;;;;;;;4.68;2.15;;;;;;;21.65;100.00;100569.13;4986764;28;20070;-66
2022/08/01 03:11:38;;;;;;;4.70;2.05;;;;;;;21.67;100.00;100566.72;4989128;28;20033;-66
2022/08/01 03:14:07;;;;;;;3.15;2.20;;;;;;;21.71;100.00;100570.91;4989999;28;20489;-66
2022/08/01 03:16:35;;;;;;;2.53;1.90;;;;;;;21.69;100.00;100575.28;4988196;28;20033;-66
2022/08/01 03:19:01;;;;;;;3.38;1.92;;;;;;;21.76;100.00;100575.09;4995677;28;20042;-65
2022/08/01 03:21:28;;;;;;;3.90;2.17;;;;;;;21.75;100.00;100568.84;4990368;28;20030;-66
2022/08/01 03:23:56;;;;;;;3.25;2.03;;;;;;;21.71;100.00;100570.91;4990315;28;20125;-65
2022/08/01 03:26:27;;;;;;;6.60;1.98;;;;;;;21.72;100.00;100577.19;4990628;28;20033;-66
2022/08/01 03:28:56;;;;;;;4.32;2.10;;;;;;;21.75;100.00;100571.59;4992345;28;20505;-65
2022/08/01 03:31:22;;;;;;;3.90;2.28;;;;;;;21.74;100.00;100585.75;4987506;28;20038;-66
2022/08/01 03:33:48;;;;;;;4.85;2.00;;;;;;;21.74;100.00;100572.78;4994383;28;20397;-66
2022/08/01 03:36:16;;;;;;;4.85;2.30;;;;;;;21.73;100.00;100579.47;4990085;28;20030;-66
2022/08/01 03:38:44;;;;;;;4.78;2.47;;;;;;;21.75;100.00;100585.31;4988963;28;20030;-66
2022/08/01 03:41:13;;;;;;;4.30;2.22;;;;;;;21.73;100.00;100586.94;5004748;28;20045;-66
2022/08/01 03:43:45;;;;;;;4.95;2.47;;;;;;;21.75;100.00;100584.53;5011155;28;20041;-66
2022/08/01 03:46:13;;;;;;;;;;;;;;;21.77;100.00;100587.59;5010754;28;20037;-66
2022/08/01 03:48:47;;;;;;;3.17;2.00;;;;;;;21.77;100.00;100599.34;4996426;28;19914;-66
2022/08/01 03:51:14;;;;;;;3.03;1.98;;;;;;;21.76;100.00;100591.53;5010730;28;20025;-66
2022/08/01 03:53:42;;;;;;;4.55;2.05;;;;;;;21.69;100.00;100586.25;5019352;28;20045;-66
2022/08/01 03:56:09;;;;;;;3.13;2.00;;;;;;;21.68;100.00;100596.44;5008761;28;20077;-65
2022/08/01 03:58:38;;;;;;;4.15;2.53;;;;;;;21.68;100.00;100598.44;5010193;28;20096;-65
2022/08/01 04:01:05;;;;;;;2.95;2.15;;;;;;;21.66;100.00;100598.09;4998477;28;20043;-66
2022/08/01 04:03:32;;;;;;;3.10;1.98;;;;;;;21.63;100.00;100599.72;4992661;28;20092;-65
2022/08/01 04:05:58;;;;;;;3.97;2.35;;;;;;;21.66;100.00;100600.84;5013972;28;20748;-65
2022/08/01 04:08:37;;;;;;;3.45;2.08;;;;;;;21.63;100.00;100609.91;5014580;28;20030;-66
2022/08/01 04:11:03;;;;;;;4.82;2.15;;;;;;;21.66;100.00;100612.56;4999606;28;20049;-66
2022/08/01 04:13:29;;;;;;;1.92;1.63;;;;;;;21.61;100.00;100618.56;4997146;28;20096;-66
2022/08/01 04:15:55;;;;;;;2.83;1.80;;;;;;;21.62;100.00;100622.88;5014329;28;20414;-66
2022/08/01 04:18:20;;;;;;;4.38;2.30;;;;;;;21.61;100.00;100610.34;5014734;28;20049;-66
2022/08/01 04:20:46;;;;;;;2.55;1.95;;;;;;;21.61;100.00;100617.78;5002048;28;20061;-66
2022/08/01 04:23:15;;;;;;;2.67;1.58;;;;;;;21.63;100.00;100623.63;5029790;28;20400;-66
2022/08/01 04:25:44;;;;;;;1.90;1.42;;;;;;;21.62;100.00;100624.84;5001110;28;20120;-65
2022/08/01 04:28:16;;;;;;;2.90;1.45;;;;;;;21.67;100.00;100625.06;4999994;28;20088;-65
2022/08/01 04:30:44;;;;;;;3.17;1.75;;;;;;;21.66;100.00;100626.25;5014068;28;20037;-66
2022/08/01 04:33:13;;;;;;;1.73;1.38;;;;;;;21.72;100.00;100634.75;4999875;28;20048;-65
2022/08/01 04:35:42;;;;;;;1.95;1.27;;;;;;;21.75;100.00;100640.16;5013298;28;20029;-65
2022/08/01 04:38:10;;;;;;;2.33;1.63;;;;;;;21.69;100.00;100641.09;4998779;28;20038;-66
2022/08/01 04:40:37;;;;;;;6.95;1.58;;;;;;;21.71;100.00;100641.44;4992596;28;20045;-66
2022/08/01 04:43:02;;;;;;;2.17;1.60;;;;;;;21.74;100.00;100637.84;4993024;28;20037;-65
2022/08/01 04:45:28;;;;;;;1.77;1.20;;;;;;;21.77;100.00;100650.69;4989721;28;20034;-64
2022/08/01 04:47:56;;;;;;;2.13;1.58;;;;;;;21.75;100.00;100650.34;4994019;28;20125;-65
2022/08/01 04:50:22;;;;;;;1.88;1.50;;;;;;;21.73;100.00;100656.25;4993137;28;20406;-66
2022/08/01 04:52:47;;;;;;;1.65;1.10;;;;;;;21.67;100.00;100662.69;4992374;28;20572;-66
2022/08/01 04:55:13;;;;;;;2.22;1.33;;;;;;;21.72;100.00;100656.69;5005558;28;20109;-66
2022/08/01 04:57:43;;;;;;;1.77;1.25;;;;;;;21.70;100.00;100657.09;5012534;28;20038;-65
2022/08/01 05:00:10;;;;;;;2.45;1.55;;;;;;;21.73;100.00;100660.97;5013468;28;20413;-66
2022/08/01 05:02:36;;;;;;;2.10;1.17;;;;;;;21.77;100.00;100658.91;5011154;28;20125;-66
2022/08/01 05:05:01;;;;;;;2.10;1.23;;;;;;;21.80;100.00;100663.53;5012935;28;20113;-66
2022/08/01 05:07:27;;;;;;;2.13;1.35;;;;;;;21.87;100.00;100666.13;5012241;28;20061;-66
2022/08/01 05:09:52;;;;;;;2.45;1.58;;;;;;;21.86;100.00;100664.56;5003147;28;20030;-66
2022/08/01 05:12:18;;;;;;;2.10;1.55;;;;;;;21.86;100.00;100664.56;5011547;28;20032;-66
2022/08/01 05:14:45;;;;;;;2.85;1.40;;;;;;;21.91;100.00;100666.81;5011704;28;20125;-65
2022/08/01 05:17:11;;;;;;;1.42;1.05;;;;;;;21.81;100.00;100656.88;5003702;28;20034;-66
2022/08/01 05:19:38;;;;;;;2.15;1.38;;;;;;;21.88;100.00;100662.16;4992596;28;20513;-66
2022/08/01 05:22:07;;;;;;;2.55;1.75;;;;;;;21.88;100.00;100668.44;5012868;28;20516;-66
2022/08/01 05:24:34;;;;;;;8.73;1.30;;;;;;;21.94;100.00;100674.94;4996102;28;20080;-66
2022/08/01 05:27:00;;;;;;;1.65;1.30;;;;;;;21.99;100.00;100673.66;5012229;28;20048;-66
2022/08/01 05:29:27;;;;;;;1.80;1.50;;;;;;;22.00;100.00;100673.22;5013538;28;20029;-66
2022/08/01 05:31:52;;;;;;;2.72;1.92;;;;;;;22.06;100.00;100682.47;5013369;28;20041;-66
2022/08/01 05:34:19;;;;;;;1.42;1.27;;;;;;;22.04;100.00;100676.66;4993347;28;20025;-66
2022/08/01 05:36:45;;;;;;;1.90;1.35;;;;;;;22.03;100.00;100680.56;4995719;28;20084;-66
2022/08/01 05:39:12;;;;;;;2.72;1.20;;;;;;;21.95;100.00;100681.22;5000697;28;20041;-66
2022/08/01 05:41:37;;;;;;;1.20;1.10;;;;;;;21.95;100.00;100683.94;5011980;28;20449;-66
2022/08/01 05:44:04;;;;;;;1.10;0.90;;;;;;;21.97;100.00;100689.78;5013138;28;20025;-65
2022/08/01 05:46:33;;;;;;;0.70;0.60;;;;;;;21.96;100.00;100693.72;5006156;28;20357;-66
2022/08/01 05:49:02;;;;;;;0.85;0.70;;;;;;;21.95;100.00;100695.66;5004116;28;20037;-66
2022/08/01 05:51:28;;;;;;;0.50;0.50;;;;;;;21.87;100.00;100699.03;5012415;28;20093;-66
2022/08/01 05:53:54;;;;;;;0.75;0.65;;;;;;;21.86;100.00;100697.47;5012897;28;20133;-66
2022/08/01 05:56:20;;;;;;;1.85;0.82;;;;;;;21.89;100.00;100702.88;4994156;28;20109;-65
2022/08/01 05:58:47;;;;;;;0.73;0.65;;;;;;;21.92;100.00;100704.78;5011548;28;20040;-66
2022/08/01 06:01:12;;;;;;;0.90;0.80;;;;;;;21.95;100.00;100703.16;5015140;28;20034;-66
2022/08/01 06:03:38;;;;;;;0.88;0.80;;;;;;;21.98;100.00;100702.28;5013117;28;20034;-66
2022/08/01 06:06:04;;;;;;;0.80;0.60;;;;;;;22.04;100.00;100708.78;4992421;28;20033;-66
2022/08/01 06:08:30;;;;;;;1.17;0.80;;;;;;;21.99;100.00;100707.31;5012123;28;20037;-66
2022/08/01 06:10:56;;;;;;;0.80;0.65;;;;;;;22.00;100.00;100710.84;5004175;28;20034;-66
2022/08/01 06:13:22;;;;;;;0.82;0.60;;;;;;;22.02;100.00;100709.22;5010253;28;20566;-66
2022/08/01 06:15:48;;;;;;;0.63;0.55;;;;;;;22.02;100.00;100713.94;5027930;28;20072;-66
2022/08/01 06:18:13;;;;;;;0.82;0.75;;;;;;;22.04;100.00;100717.00;5011603;28;20041;-65
2022/08/01 06:20:39;;;;;;;3.38;0.70;;;;;;;22.07;100.00;100719.66;4996660;28;20041;-66
2022/08/01 06:23:04;;;;;;;0.60;0.57;;;;;;;22.10;100.00;100718.03;5002446;28;20704;-66
2022/08/01 06:25:30;;;;;;;0.80;0.65;;;;;;;22.13;100.00;100715.19;5004848;28;20549;-66
2022/08/01 06:27:56;;;;;;;0.63;0.63;;;;;;;22.19;100.00;100720.94;5011999;28;20433;-65
2022/08/01 06:30:21;;;;;;;0.60;0.60;;;;;;;22.24;100.00;100717.69;5012604;28;20405;-65
2022/08/01 06:32:47;;;;;;;0.88;0.88;;;;;;;22.30;100.00;100713.19;5007080;28;20490;-66
2022/08/01 06:35:13;;;;;;;1.30;0.90;;;;;;;22.36;100.00;100719.69;4992953;28;20077;-66
2022/08/01 06:37:39;;;;;;;0.80;0.80;;;;;;;22.37;100.00;100723.97;4993095;28;20057;-66
2022/08/01 06:40:09;;;;;;;2.13;1.15;;;;;;;22.41;100.00;100732.91;5004676;28;20582;-66
2022/08/01 06:42:35;;;;;;;1.23;0.70;;;;;;;22.43;100.00;100738.72;5008827;28;20405;-66
2022/08/01 06:45:11;;;;;;;2.05;0.90;;;;;;;22.48;100.00;100734.66;5012147;28;20045;-66
2022/08/01 06:47:38;;;;;;;1.48;1.10;;;;;;;22.50;100.00;100737.75;5012566;28;20402;-66
2022/08/01 06:50:05;;;;;;;1.98;0.85;;;;;;;22.52;99.80;100738.09;4998706;28;20391;-66
2022/08/01 06:52:31;;;;;;;1.20;0.70;;;;;;;22.51;99.35;100742.81;5011321;28;20397;-66
2022/08/01 06:54:56;;;;;;;0.88;0.70;;;;;;;22.63;98.87;100746.84;5010986;28;20042;-66
2022/08/01 06:57:22;;;;;;;0.45;0.45;;;;;;;22.64;98.38;100746.41;5011264;28;20387;-66
2022/08/01 06:59:47;;;;;;;1.20;0.82;;;;;;;22.71;98.57;100742.69;5003801;28;20556;-66
2022/08/01 07:02:13;;;;;;;1.13;0.85;;;;;;;22.73;98.62;100745.75;5010463;28;20124;-66
2022/08/01 07:04:39;;;;;;;1.05;0.75;;;;;;;22.74;98.29;100750.06;5011002;28;20030;-66
2022/08/01 07:07:04;;;;;;;2.55;0.85;;;;;;;22.64;98.06;100751.91;5002582;28;20042;-66
2022/08/01 07:09:30;;;;;;;1.77;0.80;;;;;;;22.61;97.84;100755.50;4992621;28;20403;-66
2022/08/01 07:11:56;;;;;;;1.02;0.82;;;;;;;22.63;97.96;100758.59;5000060;28;20021;-66
2022/08/01 07:14:22;;;;;;;0.77;0.70;;;;;;;22.58;97.49;100756.38;5011651;28;20104;-66
2022/08/01 07:16:48;;;;;;;2.03;1.05;;;;;;;22.56;97.44;100764.25;5011796;28;20034;-66
2022/08/01 07:19:14;;;;;;;3.95;1.00;;;;;;;22.59;97.54;100763.41;4996799;28;20032;-66
2022/08/01 07:21:40;;;;;;;1.15;0.95;;;;;;;22.63;97.36;100757.84;4992006;28;20101;-65
2022/08/01 07:24:06;;;;;;;1.42;1.10;;;;;;;22.67;96.39;100766.72;4992360;28;20399;-65
2022/08/01 07:26:32;;;;;;;1.85;1.10;;;;;;;22.63;95.69;100777.06;4984005;28;20114;-66
2022/08/01 07:28:58;;;;;;;1.88;0.95;;;;;;;22.67;95.23;100781.22;4973327;28;20559;-66
2022/08/01 07:31:23;;;;;;;2.55;1.00;;;;;;;22.66;95.10;100785.19;4972588;28;20129;-65
2022/08/01 07:33:50;;;;;;;1.60;1.00;;;;;;;22.64;94.92;100779.38;4976771;28;20030;-65
2022/08/01 07:36:17;;;;;;;1.27;1.00;;;;;;;22.60;95.15;100784.19;4991075;28;20049;-66
2022/08/01 07:38:43;;;;;;;1.73;0.90;;;;;;;22.64;95.09;100779.38;4990826;28;20396;-65
2022/08/01 07:41:08;;;;;;;1.40;1.20;;;;;;;22.69;95.56;100789.81;5003157;28;20061;-65
2022/08/01 07:43:35;;;;;;;2.60;1.70;;;;;;;22.71;95.54;100790.16;5011405;28;20478;-66
2022/08/01 07:46:02;;;;;;;2.10;1.52;;;;;;;22.73;95.39;100795.97;4998805;28;20042;-66
2022/08/01 07:48:28;;;;;;;1.52;1.42;;;;;;;22.72;95.31;100801.91;5007426;28;20053;-65
2022/08/01 07:50:54;;;;;;;1.70;1.60;;;;;;;22.69;94.62;100806.28;5011257;28;20045;-65
2022/08/01 07:53:20;;;;;;;3.00;1.92;;;;;;;22.62;94.08;100801.00;5006289;28;20026;-66
2022/08/01 07:55:46;;;;;;;2.90;1.65;;;;;;;22.54;94.25;100812.56;5009080;28;20360;-65
2022/08/01 07:58:12;;;;;;;4.57;2.00;;;;;;;22.50;94.39;100807.16;5010184;28;20038;-66
2022/08/01 08:00:37;;;;;;;1.60;1.50;;;;;;;22.46;94.83;100831.19;5007656;28;20019;-66
2022/08/01 08:03:03;;;;;;;2.15;1.80;;;;;;;22.48;94.76;100823.31;5010484;28;20042;-65
2022/08/01 08:05:29;;;;;;;3.20;1.70;;;;;;;22.43;94.84;100824.59;5011034;28;20033;-65
2022/08/01 08:07:55;;;;;;;4.78;1.60;;;;;;;22.43;94.79;100827.31;5011458;28;20091;-65
2022/08/01 08:10:20;;;;;;;2.75;1.50;;;;;;;22.50;94.21;100833.84;4985779;28;20035;-65
2022/08/01 08:12:46;;;;;;;3.08;1.58;;;;;;;22.46;93.75;100831.19;4972285;28;20150;-65
2022/08/01 08:15:12;;;;;;;3.45;1.63;;;;;;;22.50;93.49;100839.34;4986673;28;20041;-66
2022/08/01 08:17:39;;;;;;;2.08;1.50;;;;;;;22.54;93.77;100835.31;5009788;28;20030;-66
2022/08/01 08:20:06;;;;;;;2.58;1.25;;;;;;;22.53;93.24;100835.75;5010561;28;20038;-65
2022/08/01 08:22:32;;;;;;;1.75;1.10;;;;;;;22.54;93.58;100838.06;5006357;28;20049;-66
2022/08/01 08:24:57;;;;;;;3.58;1.63;;;;;;;22.57;93.42;100839.19;5004316;28;20538;-65
2022/08/01 08:27:23;;;;;;;1.20;1.02;;;;;;;22.60;93.37;100844.59;5009660;28;20513;-65
2022/08/01 08:32:20;;;;;;;5.03;1.13;;;;;;;22.70;93.13;100843.56;5000924;28;20405;-72
2022/08/01 08:34:46;;;;;;;2.75;1.35;;;;;;;22.72;93.37;100849.38;5007794;28;20033;-72
2022/08/01 08:37:12;;;;;;;2.65;1.23;;;;;;;22.85;93.20;100852.94;5010815;28;20040;-70
2022/08/01 08:39:38;;;;;;;5.82;1.63;;;;;;;22.98;92.94;100850.25;5011048;28;20109;-70
2022/08/01 08:42:07;;;;;;;1.63;1.35;;;;;;;23.11;91.99;100856.56;4996878;28;20487;-70
2022/08/01 08:44:33;;;;;;;1.65;1.30;;;;;;;23.25;91.00;100854.19;5009156;28;20038;-70
2022/08/01 08:47:01;;;;;;;1.73;1.45;;;;;;;23.26;90.02;100855.75;5010002;28;20030;-71
2022/08/01 08:49:28;;;;;;;1.33;1.20;;;;;;;23.30;88.47;100864.66;5001097;28;20088;-71
2022/08/01 08:51:58;;;;;;;2.42;1.50;;;;;;;23.32;88.26;100860.72;5020467;28;20041;-70
2022/08/01 08:54:24;;;;;;;1.33;1.17;;;;;;;23.39;88.79;100874.25;5023930;28;20064;-71
2022/08/01 08:56:54;;;;;;;2.08;1.60;;;;;;;23.46;86.82;100872.06;5014064;28;20513;-70
2022/08/01 08:59:20;;;;;;;2.45;1.05;;;;;;;23.38;86.04;100872.72;5029071;28;20021;-70
2022/08/01 09:01:46;;;;;;;2.72;0.90;;;;;;;23.45;86.16;100878.78;5033431;28;20033;-71
2022/08/01 09:04:12;;;;;;;6.18;1.23;;;;;;;23.44;84.98;100882.72;5023308;28;20046;-70
2022/08/01 09:06:38;;;;;;;3.55;0.90;;;;;;;23.30;85.12;100881.16;5023006;28;20030;-70
2022/08/01 09:09:05;;;;;;;1.27;0.88;;;;;;;23.28;85.63;100891.03;5015625;28;20030;-70
2022/08/01 09:11:31;;;;;;;3.00;0.82;;;;;;;23.31;85.03;100892.94;5018945;28;20689;-71
2022/08/01 09:14:14;;;;;;;1.10;0.98;;;;;;;23.19;84.72;100891.66;5033323;28;20029;-70
2022/08/01 09:16:42;;;;;;;2.60;1.00;;;;;;;23.19;85.01;100901.88;5032984;28;20036;-70
2022/08/01 09:19:12;;;;;;;2.25;1.15;;;;;;;23.21;85.44;100899.47;5019324;28;20057;-70
2022/08/01 09:21:38;;;;;;;4.50;0.85;;;;;;;23.32;84.07;100896.47;5031796;28;20037;-71
2022/08/01 09:24:13;;;;;;;1.50;0.80;;;;;;;23.27;84.58;100909.50;5033422;28;20033;-70
2022/08/01 09:26:38;;;;;;;2.78;1.00;;;;;;;23.39;84.74;100913.53;5011791;28;20044;-70
2022/08/01 09:29:06;;;;;;;0.80;0.75;;;;;;;23.40;84.48;100919.81;5014199;28;20042;-71
2022/08/01 09:31:42;;;;;;;1.92;0.90;;;;;;;23.44;84.12;100923.22;5029430;28;20045;-70
2022/08/01 09:34:09;;;;;;;2.17;1.00;;;;;;;23.44;84.28;100923.97;5026378;28;20038;-70
2022/08/01 09:36:44;;;;;;;0.90;0.90;;;;;;;23.51;83.63;100932.03;5004808;28;20391;-71
2022/08/01 09:39:14;;;;;;;1.88;0.93;;;;;;;23.61;82.18;100930.19;4993682;28;20065;-70
2022/08/01 09:41:41;;;;;;;0.90;0.70;;;;;;;23.85;82.23;100934.19;4993807;28;20447;-71
2022/08/01 09:44:06;;;;;;;0.60;0.60;;;;;;;24.17;81.79;100942.31;4994287;28;20026;-70
2022/08/01 09:46:32;;;;;;;2.00;0.70;;;;;;;24.44;79.97;100939.88;4992841;28;20097;-71
2022/08/01 09:49:02;;;;;;;4.50;0.80;;;;;;;24.69;79.23;100942.59;4992661;28;20034;-71
2022/08/01 09:51:33;;;;;;;2.40;0.80;;;;;;;25.08;78.00;100948.78;5024511;28;20125;-70
2022/08/01 09:53:59;;;;;;;;;;;;;;;25.41;75.72;100942.50;5013418;28;20041;-70
2022/08/01 09:56:25;;;;;;;1.10;0.65;;;;;;;25.79;73.05;100945.03;5012035;28;19920;-71
2022/08/01 09:58:55;;;;;;;0.60;0.60;;;;;;;26.01;70.93;100945.00;5009827;28;20034;-71
2022/08/01 10:01:22;;;;;;;1.65;0.80;;;;;;;26.11;69.14;100949.38;5021754;28;20041;-71
2022/08/01 10:04:13;;;;;;;1.58;0.80;;;;;;;26.32;68.07;100948.53;5032802;28;20074;-71
2022/08/01 10:06:40;;;;;;;;;;;;;;;26.61;68.32;100954.44;5023880;28;20030;-71
2022/08/01 10:09:05;;;;;;;1.10;0.50;;;;;;;26.92;66.85;100955.16;5013118;28;19940;-71
2022/08/01 10:11:32;;;;;;;1.02;0.50;;;;;;;27.11;65.10;100958.69;5030100;28;20474;-71
2022/08/01 10:13:58;;;;;;;0.45;0.45;;;;;;;27.29;64.55;100953.16;5032625;28;20021;-71
2022/08/01 10:16:26;;;;;;;2.28;0.77;;;;;;;27.41;61.44;100949.50;5015773;28;20408;-71
2022/08/01 10:18:53;;;;;;;2.92;0.70;;;;;;;27.50;60.39;100958.56;5008319;28;20034;-71
2022/08/01 10:21:20;;;;;;;0.80;0.55;;;;;;;27.64;59.91;100949.59;5013708;28;20145;-71
2022/08/01 10:23:46;;;;;;;3.25;0.60;;;;;;;27.72;59.85;100952.06;5032150;28;20433;-71
2022/08/01 10:26:12;;;;;;;3.10;0.70;;;;;;;27.90;58.61;100952.75;5031581;28;20049;-71
2022/08/01 10:28:39;;;;;;;0.65;0.50;;;;;;;28.05;56.48;100952.91;5022851;28;20458;-71
2022/08/01 10:31:06;;;;;;;1.38;0.57;;;;;;;28.24;56.37;100971.75;5022223;28;20030;-71
2022/08/01 10:33:32;;;;;;;2.42;0.80;;;;;;;28.32;55.94;100967.41;5030363;28;20102;-71
2022/08/01 10:35:58;;;;;;;1.35;0.60;;;;;;;28.38;54.48;100967.53;5007059;28;20474;-72
2022/08/01 10:38:24;;;;;;;1.27;0.57;;;;;;;28.22;54.42;100965.16;5011087;28;20049;-71
2022/08/01 10:40:51;;;;;;;2.70;0.85;;;;;;;28.29;53.88;100965.59;5011803;28;20037;-71
2022/08/01 10:43:17;;;;;;;1.17;0.40;;;;;;;28.32;55.05;100961.84;5007596;28;20044;-71
2022/08/01 10:45:43;;;;;;;1.50;0.40;;;;;;;28.53;52.91;100962.84;5007974;28;20105;-72
2022/08/01 10:48:15;;;;;;;2.25;0.40;;;;;;;28.70;52.12;100958.47;5026797;28;20172;-72
2022/08/01 10:50:46;;;;;;;2.60;0.70;;;;;;;28.96;51.47;100958.75;5031203;28;20048;-72
2022/08/01 10:53:16;;;;;;;1.63;0.70;;;;;;;29.11;50.90;100962.31;5032042;28;20640;-71
2022/08/01 10:55:51;;;;;;;2.75;0.60;;;;;;;29.34;49.95;100961.53;4995361;28;20049;-71
2022/08/01 10:58:32;;;;;;;1.08;0.32;;;;;;;29.50;50.17;100965.88;4992412;28;20048;-72
2022/08/01 11:01:17;;;;;;;1.88;0.55;;;;;;;29.76;50.83;100966.84;5007079;28;20030;-72
2022/08/01 11:03:44;;;;;;;0.98;0.68;;;;;;;29.94;50.99;100972.22;5003462;28;20037;-72
2022/08/01 11:06:20;;;;;;;1.02;0.45;;;;;;;30.15;49.53;100973.81;5010761;28;20053;-72
2022/08/01 11:08:54;;;;;;;1.45;0.80;;;;;;;30.33;48.38;100970.09;5006602;28;20033;-72
2022/08/01 11:11:20;;;;;;;1.13;0.43;;;;;;;30.47;49.08;100974.84;5021802;28;20116;-72
2022/08/01 11:14:06;;;;;;;1.52;0.73;;;;;;;30.48;47.80;100968.03;5031649;28;20386;-72
2022/08/01 11:16:35;;;;;;;1.50;0.60;;;;;;;30.58;47.17;100981.34;5030388;28;20033;-71
2022/08/01 11:19:02;;;;;;;0.98;0.70;;;;;;;30.72;46.70;100976.97;5012633;28;20533;-72
2022/08/01 11:21:52;;;;;;;1.25;0.80;;;;;;;30.69;46.82;100964.78;4992050;28;20057;-72
2022/08/01 11:24:50;;;;;;;0.82;0.57;;;;;;;30.62;47.64;100965.22;4992267;28;20081;-72
2022/08/01 11:27:21;;;;;;;2.60;0.70;;;;;;;30.61;46.19;100966.44;4992375;28;20037;-71
2022/08/01 11:30:08;;;;;;;2.00;0.70;;;;;;;30.66;46.76;100965.00;4992089;28;20045;-71